createdAt,value
2022-08-16T00:00:03.432Z,99532.75
2022-08-16T00:03:07.562Z,99530.75
2022-08-16T00:06:16.187Z,99530.75
2022-08-16T00:09:18.373Z,99528.87
2022-08-16T00:12:20.936Z,99532.19
2022-08-16T00:15:52.025Z,99532.84
2022-08-16T00:18:55.356Z,99536.41
2022-08-16T00:22:03.115Z,99532.91
2022-08-16T00:25:13.462Z,99538.09
2022-08-16T00:28:15.746Z,99540.88
2022-08-16T00:31:18.366Z,99550.44
2022-08-16T00:34:41.906Z,99540.25
2022-08-16T00:37:58.690Z,99539.44
2022-08-16T00:41:02.342Z,99536.16
2022-08-16T00:44:11.138Z,99530.75
2022-08-16T00:47:18.409Z,99539.09
2022-08-16T00:50:36.474Z,99532.62
2022-08-16T00:53:39.657Z,99540.75
2022-08-16T00:56:58.396Z,99551.78
2022-08-16T01:00:05.067Z,99547.25
2022-08-16T01:03:15.193Z,99553.34
2022-08-16T01:06:40.411Z,99556.88
2022-08-16T01:09:43.111Z,99557.72
2022-08-16T01:12:45.480Z,99556.25
2022-08-16T01:16:10.794Z,99551.47
2022-08-16T01:19:29.373Z,99554.41
2022-08-16T01:22:48.140Z,99557.94
2022-08-16T01:26:00.237Z,99565.19
2022-08-16T01:29:56.949Z,99556.47
2022-08-16T01:33:01.424Z,99554.19
2022-08-16T01:36:12.154Z,99572.06
2022-08-16T01:39:17.560Z,99573.47
2022-08-16T01:42:21.066Z,99568.28
2022-08-16T01:45:40.565Z,99570.59
2022-08-16T01:48:46.212Z,99568.13
2022-08-16T01:51:55.037Z,99568.53
2022-08-16T01:54:59.550Z,99563.12
2022-08-16T01:58:02.461Z,99560.84
2022-08-16T02:01:08.190Z,99558.13
2022-08-16T02:04:11.638Z,99560.41
2022-08-16T02:07:18.304Z,99558.94
2022-08-16T02:10:21.660Z,99550.03
2022-08-16T02:13:32.759Z,99547.34
2022-08-16T02:16:35.894Z,99550.91
2022-08-16T02:19:59.049Z,99548.19
2022-08-16T02:23:05.956Z,99554.59
2022-08-16T02:26:08.524Z,99557.09
2022-08-16T02:29:12.948Z,99551.28
2022-08-16T02:32:50.648Z,99555.66
2022-08-16T02:35:49.626Z,99553.38
2022-08-16T02:38:57.642Z,99547.78
2022-08-16T02:42:00.497Z,99546.94
2022-08-16T02:45:02.986Z,99545.72
2022-08-16T02:48:29.965Z,99547.38
2022-08-16T02:51:31.447Z,99549.84
2022-08-16T02:54:35.027Z,99550.47
2022-08-16T02:57:42.329Z,99551.50
2022-08-16T03:00:57.718Z,99553.34
2022-08-16T03:04:41.352Z,99555.66
2022-08-16T03:07:27.702Z,99544.44
2022-08-16T03:10:33.310Z,99556.47
2022-08-16T03:13:40.006Z,99556.47
2022-08-16T03:16:59.175Z,99558.50
2022-08-16T03:20:06.396Z,99564.53
2022-08-16T03:23:09.391Z,99567.81
2022-08-16T03:26:13.498Z,99567.59
2022-08-16T03:29:16.358Z,99559.72
2022-08-16T03:32:19.078Z,99570.69
2022-08-16T03:35:32.588Z,99576.91
2022-08-16T03:38:36.980Z,99567.37
2022-08-16T03:41:50.796Z,99581.87
2022-08-16T03:45:03.372Z,99583.50
2022-08-16T03:48:10.557Z,99589.56
2022-08-16T03:51:23.606Z,99609.88
2022-08-16T03:54:28.788Z,99602.44
2022-08-16T03:57:36.656Z,99597.25
2022-08-16T04:00:41.351Z,99598.31
2022-08-16T04:03:45.342Z,99595.88
2022-08-16T04:06:48.558Z,99603.00
2022-08-16T04:09:54.428Z,99611.91
2022-08-16T04:13:04.456Z,99609.63
2022-08-16T04:16:08.780Z,99619.00
2022-08-16T04:19:12.064Z,99613.59
2022-08-16T04:22:17.409Z,99619.37
2022-08-16T04:25:22.718Z,99617.72
2022-08-16T04:28:51.967Z,99622.94
2022-08-16T04:31:56.913Z,99618.38
2022-08-16T04:35:07.616Z,99621.88
2022-08-16T04:38:21.364Z,99618.69
2022-08-16T04:41:32.948Z,99608.19
2022-08-16T04:44:53.330Z,99605.81
2022-08-16T04:48:00.140Z,99609.44
2022-08-16T04:51:11.565Z,99617.22
2022-08-16T04:54:15.682Z,99614.56
2022-08-16T04:57:22.664Z,99614.50
2022-08-16T05:00:34.138Z,99611.94
2022-08-16T05:03:41.980Z,99609.47
2022-08-16T05:07:02.188Z,99617.53
2022-08-16T05:10:19.593Z,99617.31
2022-08-16T05:13:25.344Z,99629.63
2022-08-16T05:16:45.441Z,99632.75
2022-08-16T05:19:57.338Z,99634.09
2022-08-16T05:23:01.072Z,99635.97
2022-08-16T05:26:04.861Z,99652.34
2022-08-16T05:29:11.018Z,99645.50
2022-08-16T05:32:32.338Z,99657.37
2022-08-16T05:35:37.085Z,99650.69
2022-08-16T05:38:40.915Z,99650.28
2022-08-16T05:41:45.201Z,99657.59
2022-08-16T05:44:49.374Z,99643.87
2022-08-16T05:47:59.985Z,99642.03
2022-08-16T05:51:06.304Z,99643.28
2022-08-16T05:54:14.196Z,99648.44
2022-08-16T05:57:18.934Z,99642.97
2022-08-16T06:00:25.133Z,99640.19
2022-08-16T06:03:29.667Z,99637.16
2022-08-16T06:06:32.518Z,99636.59
2022-08-16T06:09:43.427Z,99646.59
2022-08-16T06:12:46.551Z,99645.47
2022-08-16T06:15:55.535Z,99642.50
2022-08-16T06:19:00.445Z,99642.22
2022-08-16T06:22:08.766Z,99640.22
2022-08-16T06:25:13.398Z,99648.94
2022-08-16T06:28:35.869Z,99648.41
2022-08-16T06:31:46.906Z,99654.53
2022-08-16T06:34:56.885Z,99646.75
2022-08-16T06:38:05.745Z,99647.78
2022-08-16T06:41:28.250Z,99643.72
2022-08-16T06:44:45.485Z,99646.28
2022-08-16T06:47:53.323Z,99646.66
2022-08-16T06:50:58.253Z,99651.22
2022-08-16T06:54:01.591Z,99642.69
2022-08-16T06:57:05.443Z,99642.44
2022-08-16T07:00:24.634Z,99637.81
2022-08-16T07:03:32.438Z,99639.97
2022-08-16T07:06:51.612Z,99646.06
2022-08-16T07:09:55.074Z,99649.06
2022-08-16T07:13:03.920Z,99648.13
2022-08-16T07:16:31.206Z,99651.75
2022-08-16T07:20:03.991Z,99658.00
2022-08-16T07:22:59.192Z,99648.84
2022-08-16T07:26:02.452Z,99647.84
2022-08-16T07:29:05.015Z,99643.41
2022-08-16T07:32:10.818Z,99640.03
2022-08-16T07:35:13.371Z,99656.19
2022-08-16T07:38:20.088Z,99654.09
2022-08-16T07:41:37.378Z,99665.31
2022-08-16T07:44:50.364Z,99671.00
2022-08-16T07:47:53.435Z,99679.63
2022-08-16T07:50:59.240Z,99677.22
2022-08-16T07:54:09.986Z,99678.50
2022-08-16T07:57:14.660Z,99686.13
2022-08-16T08:00:26.449Z,99669.44
2022-08-16T08:03:39.384Z,99667.09
2022-08-16T08:06:45.115Z,99675.81
2022-08-16T08:09:48.013Z,99672.84
2022-08-16T08:12:55.040Z,99665.47
2022-08-16T08:15:57.811Z,99677.06
2022-08-16T08:19:02.454Z,99682.22
2022-08-16T08:22:06.459Z,99672.59
2022-08-16T08:25:09.624Z,99680.63
2022-08-16T08:28:18.542Z,99678.06
2022-08-16T08:31:23.402Z,99673.78
2022-08-16T08:34:25.990Z,99680.59
2022-08-16T08:37:54.443Z,99679.94
2022-08-16T08:40:51.704Z,99676.72
2022-08-16T08:43:53.892Z,99676.13
2022-08-16T08:47:00.771Z,99681.84
2022-08-16T08:50:06.938Z,99683.59
2022-08-16T08:53:11.609Z,99679.16
2022-08-16T08:56:23.143Z,99679.63
2022-08-16T08:59:29.234Z,99682.78
2022-08-16T09:02:31.695Z,99673.78
2022-08-16T09:05:36.055Z,99673.69
2022-08-16T09:08:40.470Z,99672.78
2022-08-16T09:12:00.286Z,99670.03
2022-08-16T09:15:11.477Z,99670.12
2022-08-16T09:18:24.918Z,99671.56
2022-08-16T09:21:31.482Z,99671.25
2022-08-16T09:24:46.910Z,99662.75
2022-08-16T09:27:58.070Z,99668.41
2022-08-16T09:31:05.926Z,99665.19
2022-08-16T09:34:08.299Z,99661.12
2022-08-16T09:37:18.075Z,99649.50
2022-08-16T09:40:31.924Z,99647.34
2022-08-16T09:43:59.249Z,99648.28
2022-08-16T09:47:03.437Z,99648.22
2022-08-16T09:50:13.664Z,99641.19
2022-08-16T09:53:26.748Z,99650.63
2022-08-16T09:56:33.712Z,99653.94
2022-08-16T09:59:38.455Z,99649.78
2022-08-16T10:02:44.473Z,99648.16
2022-08-16T10:05:50.976Z,99643.50
2022-08-16T10:09:05.159Z,99635.72
2022-08-16T10:12:28.188Z,99638.72
2022-08-16T10:15:31.414Z,99635.09
2022-08-16T10:18:56.559Z,99630.25
2022-08-16T10:21:57.169Z,99625.13
2022-08-16T10:25:00.714Z,99628.91
2022-08-16T10:28:27.629Z,99634.75
2022-08-16T10:31:44.412Z,99631.72
2022-08-16T10:34:51.469Z,99633.06
2022-08-16T10:37:54.995Z,99624.88
2022-08-16T10:40:57.106Z,99626.78
2022-08-16T10:44:00.221Z,99636.00
2022-08-16T10:47:02.564Z,99631.50
2022-08-16T10:50:06.996Z,99620.22
2022-08-16T10:53:21.875Z,99618.88
2022-08-16T10:56:55.763Z,99614.88
2022-08-16T10:59:56.118Z,99619.41
2022-08-16T11:03:04.873Z,99611.50
2022-08-16T11:06:12.014Z,99613.69
2022-08-16T11:09:25.594Z,99600.06
2022-08-16T11:12:31.072Z,99601.41
2022-08-16T11:15:35.378Z,99596.13
2022-08-16T11:18:48.371Z,99605.25
2022-08-16T11:22:38.897Z,99604.00
2022-08-16T11:32:13.094Z,99610.75
2022-08-16T11:38:55.484Z,99631.44
2022-08-16T11:42:00.811Z,99638.16
2022-08-16T11:45:04.888Z,99645.66
2022-08-16T11:48:09.326Z,99645.84
2022-08-16T11:51:11.769Z,99638.25
2022-08-16T11:54:20.806Z,99653.25
2022-08-16T11:57:24.010Z,99650.94
2022-08-16T12:00:33.891Z,99655.66
2022-08-16T12:03:52.266Z,99643.28
2022-08-16T12:06:54.984Z,99642.31
2022-08-16T12:09:57.390Z,99642.97
2022-08-16T12:13:02.790Z,99634.87
2022-08-16T12:16:08.207Z,99621.50
2022-08-16T12:19:13.800Z,99624.88
2022-08-16T12:22:18.646Z,99620.28
2022-08-16T12:25:24.354Z,99613.16
2022-08-16T12:28:54.096Z,99618.19
2022-08-16T12:32:01.336Z,99617.63
2022-08-16T12:35:18.611Z,99617.38
2022-08-16T12:38:41.223Z,99620.72
2022-08-16T12:41:46.255Z,99620.16
2022-08-16T12:44:50.272Z,99617.22
2022-08-16T12:48:32.986Z,99618.00
2022-08-16T12:51:59.403Z,99623.03
2022-08-16T12:55:04.185Z,99628.28
2022-08-16T12:58:13.740Z,99630.00
2022-08-16T13:01:19.622Z,99613.81
2022-08-16T13:04:25.684Z,99618.50
2022-08-16T13:07:28.188Z,99615.56
2022-08-16T13:10:41.076Z,99608.47
2022-08-16T13:13:43.558Z,99601.34
2022-08-16T13:16:47.932Z,99596.13
2022-08-16T13:20:07.070Z,99588.44
2022-08-16T13:23:11.823Z,99588.41
2022-08-16T13:26:18.972Z,99584.34
2022-08-16T13:29:21.170Z,99588.19
2022-08-16T13:32:40.673Z,99575.41
2022-08-16T13:35:56.260Z,99577.13
2022-08-16T13:39:02.055Z,99577.16
2022-08-16T13:42:09.917Z,99578.88
2022-08-16T13:45:15.831Z,99578.16
2022-08-16T13:48:24.944Z,99589.81
2022-08-16T13:51:30.862Z,99580.56
2022-08-16T13:54:33.643Z,99582.16
2022-08-16T13:58:34.169Z,99581.75
2022-08-16T14:00:59.665Z,99573.28
2022-08-16T14:04:02.213Z,99567.41
2022-08-16T14:07:07.827Z,99563.06
2022-08-16T14:10:12.911Z,99558.22
2022-08-16T14:13:19.922Z,99567.88
2022-08-16T14:16:33.771Z,99555.53
2022-08-16T14:19:36.439Z,99561.22
2022-08-16T14:22:42.627Z,99552.63
2022-08-16T14:25:45.857Z,99551.72
2022-08-16T14:28:59.981Z,99556.16
2022-08-16T14:32:08.052Z,99543.72
2022-08-16T14:35:15.892Z,99537.28
2022-08-16T14:38:23.728Z,99542.91
2022-08-16T14:41:28.593Z,99542.91
2022-08-16T14:44:30.694Z,99555.00
2022-08-16T14:47:37.053Z,99551.25
2022-08-16T14:50:39.527Z,99562.50
2022-08-16T14:53:45.207Z,99564.28
2022-08-16T14:56:55.039Z,99576.25
2022-08-16T15:00:02.006Z,99587.63
2022-08-16T15:03:10.654Z,99588.75
2022-08-16T15:06:14.575Z,99600.81
2022-08-16T15:09:18.571Z,99615.34
2022-08-16T15:12:26.541Z,99641.13
2022-08-16T15:15:33.650Z,99633.69
2022-08-16T15:18:39.334Z,99640.53
2022-08-16T15:21:42.321Z,99632.28
2022-08-16T15:24:45.083Z,99641.38
2022-08-16T15:27:55.045Z,99625.56
2022-08-16T15:31:00.971Z,99627.25
2022-08-16T15:34:06.264Z,99641.53
2022-08-16T15:37:08.637Z,99631.81
2022-08-16T15:40:26.651Z,99635.06
2022-08-16T15:43:39.964Z,99626.59
2022-08-16T15:46:56.646Z,99621.47
2022-08-16T15:50:02.333Z,99609.91
2022-08-16T15:53:16.492Z,99615.81
2022-08-16T15:56:20.167Z,99617.06
2022-08-16T15:59:27.089Z,99614.50
2022-08-16T16:02:31.480Z,99617.94
2022-08-16T16:05:39.836Z,99615.03
2022-08-16T16:08:42.127Z,99607.75
2022-08-16T16:11:45.717Z,99610.91
2022-08-16T16:14:48.581Z,99609.97
2022-08-16T16:17:54.524Z,99615.66
2022-08-16T16:21:04.365Z,99618.38
2022-08-16T16:24:21.160Z,99620.41
2022-08-16T16:27:26.408Z,99630.44
2022-08-16T16:30:37.235Z,99629.63
2022-08-16T16:33:51.204Z,99628.66
2022-08-16T16:36:54.392Z,99626.84
2022-08-16T16:39:56.884Z,99628.16
2022-08-16T16:43:02.308Z,99626.97
2022-08-16T16:46:40.984Z,99623.31
2022-08-16T16:49:28.298Z,99626.75
2022-08-16T16:52:43.412Z,99627.22
2022-08-16T16:55:52.105Z,99625.91
2022-08-16T16:59:01.229Z,99624.38
2022-08-16T17:02:41.117Z,99630.91
2022-08-16T17:05:29.282Z,99627.81
2022-08-16T17:08:35.220Z,99633.47
2022-08-16T17:11:40.906Z,99646.84
2022-08-16T17:14:43.463Z,99677.34
2022-08-16T17:17:59.979Z,99673.53
2022-08-16T17:21:04.700Z,99664.53
2022-08-16T17:24:17.849Z,99659.34
2022-08-16T17:27:33.232Z,99659.47
2022-08-16T17:30:45.028Z,99670.56
2022-08-16T17:37:10.463Z,99692.94
2022-08-16T17:39:27.126Z,99689.50
2022-08-16T17:40:25.359Z,99695.53
2022-08-16T17:43:44.587Z,99697.19
2022-08-16T17:46:52.077Z,99702.06
2022-08-16T17:49:54.870Z,99700.25
2022-08-16T17:52:57.463Z,99703.06
2022-08-16T17:56:00.433Z,99709.81
2022-08-16T17:59:02.907Z,99717.00
2022-08-16T18:02:42.805Z,99722.28
2022-08-16T18:05:29.548Z,99719.41
2022-08-16T18:08:32.192Z,99728.19
2022-08-16T18:11:40.974Z,99733.75
2022-08-16T18:14:52.354Z,99732.34
2022-08-16T18:17:56.432Z,99731.97
2022-08-16T18:21:17.088Z,99733.28
2022-08-16T18:24:20.009Z,99732.16
2022-08-16T18:27:26.782Z,99745.12
2022-08-16T18:30:29.788Z,99739.88
2022-08-16T18:33:33.620Z,99738.47
2022-08-16T18:36:45.598Z,99729.38
2022-08-16T18:39:47.757Z,99733.03
2022-08-16T18:43:04.523Z,99741.50
2022-08-16T18:46:06.796Z,99743.47
2022-08-16T18:49:09.752Z,99736.28
2022-08-16T18:52:25.083Z,99730.81
2022-08-16T18:55:33.553Z,99731.03
2022-08-16T18:58:35.918Z,99739.59
2022-08-16T19:01:38.373Z,99741.56
2022-08-16T19:04:57.437Z,99742.13
2022-08-16T19:08:02.169Z,99739.78
2022-08-16T19:11:06.710Z,99746.38
2022-08-16T19:14:10.226Z,99745.06
2022-08-16T19:17:12.509Z,99741.22
2022-08-16T19:20:17.991Z,99756.91
2022-08-16T19:23:24.212Z,99749.06
2022-08-16T19:26:26.816Z,99745.56
2022-08-16T19:29:29.048Z,99745.56
2022-08-16T19:32:31.513Z,99750.37
2022-08-16T19:35:34.082Z,99755.44
2022-08-16T19:38:36.572Z,99752.34
2022-08-16T19:41:53.160Z,99753.22
2022-08-16T19:44:58.857Z,99755.13
2022-08-16T19:48:03.605Z,99755.59
2022-08-16T19:51:06.166Z,99759.56
2022-08-16T19:54:08.276Z,99762.69
2022-08-16T19:57:11.190Z,99756.59
2022-08-16T20:00:15.871Z,99752.44
2022-08-16T20:03:21.271Z,99757.44
2022-08-16T20:06:37.743Z,99758.28
2022-08-16T20:09:41.973Z,99759.16
2022-08-16T20:13:01.966Z,99762.59
2022-08-16T20:16:05.181Z,99758.38
2022-08-16T20:19:07.372Z,99768.44
2022-08-16T20:22:49.798Z,99772.22
2022-08-16T20:25:50.109Z,99764.34
2022-08-16T20:28:54.892Z,99768.94
2022-08-16T20:31:57.711Z,99774.81
2022-08-16T20:35:01.301Z,99773.75
2022-08-16T20:38:04.217Z,99769.59
2022-08-16T20:41:06.525Z,99777.28
2022-08-16T20:44:11.338Z,99777.28
2022-08-16T20:47:14.464Z,99774.97
2022-08-16T20:50:16.579Z,99776.44
2022-08-16T20:53:19.031Z,99777.91
2022-08-16T20:56:21.267Z,99776.25
2022-08-16T20:59:23.805Z,99781.22
2022-08-16T21:02:27.045Z,99784.75
2022-08-16T21:05:31.849Z,99781.84
2022-08-16T21:08:51.873Z,99784.75
2022-08-16T21:11:57.693Z,99776.19
2022-08-16T21:15:06.131Z,99782.78
2022-08-16T21:18:08.565Z,99783.62
2022-08-16T21:21:12.052Z,99781.97
2022-08-16T21:24:14.685Z,99788.56
2022-08-16T21:27:17.752Z,99796.28
2022-08-16T21:30:23.022Z,99800.41
2022-08-16T21:33:30.084Z,99801.91
2022-08-16T21:36:34.637Z,99806.97
2022-08-16T21:39:39.196Z,99807.34
2022-08-16T21:42:42.607Z,99810.63
2022-08-16T21:45:46.275Z,99808.75
2022-08-16T21:48:48.651Z,99806.00
2022-08-16T21:51:51.389Z,99811.59
2022-08-16T21:54:56.605Z,99816.34
2022-08-16T21:57:59.295Z,99810.53
2022-08-16T22:01:02.871Z,99812.66
2022-08-16T22:04:36.773Z,99808.81
2022-08-16T22:07:27.426Z,99809.47
2022-08-16T22:11:06.241Z,99813.62
2022-08-16T22:13:58.793Z,99818.78
2022-08-16T22:17:01.906Z,99809.34
2022-08-16T22:20:05.939Z,99817.87
2022-08-16T22:23:21.966Z,99817.63
2022-08-16T22:26:31.046Z,99820.69
2022-08-16T22:29:34.106Z,99821.47
2022-08-16T22:32:44.147Z,99818.81
2022-08-16T22:35:55.014Z,99818.25
2022-08-16T22:38:59.375Z,99824.84
2022-08-16T22:42:08.176Z,99829.97
2022-08-16T22:45:11.367Z,99818.56
2022-08-16T22:48:15.963Z,99822.88
2022-08-16T22:51:20.135Z,99821.59
2022-08-16T22:54:47.342Z,99822.47
2022-08-16T22:57:44.858Z,99828.72
2022-08-16T23:00:47.252Z,99830.56
2022-08-16T23:03:49.465Z,99823.75
2022-08-16T23:06:52.271Z,99816.44
2022-08-16T23:09:55.103Z,99821.19
2022-08-16T23:13:04.421Z,99822.78
2022-08-16T23:16:11.418Z,99821.13
2022-08-16T23:19:15.895Z,99822.41
2022-08-16T23:22:17.992Z,99820.66
2022-08-16T23:25:33.247Z,99826.78
2022-08-16T23:28:35.774Z,99819.97
2022-08-16T23:31:38.366Z,99820.31
2022-08-16T23:34:40.890Z,99816.84
2022-08-16T23:37:43.841Z,99826.56
2022-08-16T23:40:46.290Z,99815.47
2022-08-16T23:43:48.993Z,99820.22
2022-08-16T23:46:51.146Z,99821.50
2022-08-16T23:50:00.471Z,99818.75
2022-08-16T23:53:10.547Z,99829.84
2022-08-16T23:56:17.803Z,99829.22
2022-08-16T23:59:19.943Z,99837.72
